Flight Track Log - Related Links

Times and Time Zones

All times are in EDT time to prevent confusion due to time zone crossing. See the SWA641 flight status page for this flight to view local times or setup timezone preferences in your user account.

Time Position Orientation Groundspeed Altitude Reporting Facility
EDT Latitude Longitude Course Direction KTS MPH feet Rate Location/Type
Tue 10:42:19 AM 44.7603 -93.1944 164° South 265 305 6,100  Level Minneapolis Center
Tue 10:43:20 AM 44.6869 -93.1533 158° South 271 312 11,200 4,195 Climbing Minneapolis Center
Tue 10:44:22 AM 44.6036 -93.1083 159° South 322 371 14,700 3,561 Climbing Minneapolis Center
Tue 10:45:23 AM 44.5161 -93.0614 159° South 337 388 18,500 3,805 Climbing Minneapolis Center
Tue 10:46:25 AM 44.4000 -92.9983 159° South 372 428 22,500 3,366 Climbing Minneapolis Center
Tue 10:47:26 AM 44.2992 -92.9447 159° South 385 443 25,400 2,732 Climbing Minneapolis Center
Tue 10:48:28 AM 44.1958 -92.8819 156° South 404 465 28,100 2,341 Climbing Minneapolis Center
Tue 10:49:29 AM 44.0914 -92.8086 153° Southeast 420 483 30,200 2,000 Climbing Minneapolis Center
Tue 10:50:31 AM 43.9814 -92.7333 154° Southeast 437 503 32,200 2,098 Climbing Minneapolis Center
Tue 10:51:32 AM 43.8686 -92.6567 154° Southeast 449 517 34,500 2,115 Climbing Minneapolis Center
Tue 10:52:33 AM 43.7664 -92.5939 156° South 445 512 36,500 1,902 Climbing Minneapolis Center
Tue 10:53:35 AM 43.6247 -92.5722 174° South 431 496 38,400 1,694 Climbing Minneapolis Center
Tue 10:54:37 AM 43.5047 -92.5506 173° South 437 503 40,000 1,268 Climbing Minneapolis Center
Tue 10:55:38 AM 43.3872 -92.5333 174° South 431 496 41,000 488 Climbing Minneapolis Center
Tue 10:56:40 AM 43.2722 -92.5144 173° South 423 487 41,000  Level Minneapolis Center
Tue 10:57:42 AM 43.1331 -92.4931 174° South 422 486 41,000  Level Minneapolis Center
Tue 10:58:43 AM 43.0178 -92.4747 173° South 423 487 41,000  Level Minneapolis Center
Tue 10:59:45 AM 42.9031 -92.4567 173° South 421 484 41,000  Level Minneapolis Center
Tue 11:00:46 AM 42.7892 -92.4375 173° South 419 482 41,000  Level Minneapolis Center
Tue 11:02:00 AM 42.6733 -92.4181 173° South 423 487 41,000  Level Minneapolis Center
Tue 11:03:01 AM 42.5131 -92.3914 173° South 422 486 41,000  Level Minneapolis Center
Tue 11:04:03 AM 42.3978 -92.3633 170° South 425 489 41,000 -49 Level Minneapolis Center
Tue 11:05:04 AM 42.2836 -92.3386 171° South 422 486 40,900 -537 Descending Minneapolis Center
Tue 11:06:06 AM 42.1675 -92.3117 170° South 425 489 39,900 -968 Descending Minneapolis Center
Tue 11:07:08 AM 42.0492 -92.2844 170° South 433 498 38,900 -977 Descending Minneapolis Center
Tue 11:08:15 AM 41.9025 -92.2458 169° South 448 516 37,800 -977 Descending Chicago Center
Tue 11:09:17 AM 41.7822 -92.2214 171° South 444 511 36,800 -919 Descending Chicago Center
Tue 11:10:19 AM 41.6608 -92.1942 170° South 447 514 35,900 -976 Descending Chicago Center
Tue 11:11:20 AM 41.5147 -92.1608 170° South 447 514 34,800 -1,024 Descending Chicago Center
Tue 11:12:22 AM 41.3925 -92.1339 171° South 449 517 33,800 -919 Descending Chicago Center
Tue 11:13:24 AM 41.2697 -92.1083 171° South 450 518 32,900 -927 Descending Chicago Center
Tue 11:14:25 AM 41.1494 -92.0800 170° South 454 522 31,900 -976 Descending Chicago Center
Tue 11:15:27 AM 41.0281 -92.0544 171° South 446 513 30,900 -1,065 Descending Chicago Center
Tue 11:16:29 AM 40.8833 -92.0211 170° South 443 510 29,700 -1,073 Descending Chicago Center
Tue 11:17:30 AM 40.7683 -91.9739 163° South 441 507 28,700 -1,024 Descending Chicago Center
Tue 11:18:32 AM 40.6644 -91.8933 150° Southeast 436 502 27,600 -872 Descending Chicago Center
Tue 11:19:27 AM 40.5811 -91.8294 150° Southeast 435 501 27,000 -308 Descending Kansas City Center
Tue 11:20:29 AM 40.4592 -91.7358 150° Southeast 428 493 27,000  Level Kansas City Center
Tue 11:21:31 AM 40.3556 -91.6583 150° Southeast 428 493 27,000  Level Kansas City Center
Tue 11:22:33 AM 40.2525 -91.5792 150° Southeast 429 494 27,000  Level Kansas City Center
Tue 11:23:35 AM 40.1503 -91.5019 150° Southeast 427 491 27,000  Level Kansas City Center
Tue 11:24:37 AM 40.0478 -91.4244 150° Southeast 428 493 27,000  Level Kansas City Center
Tue 11:25:39 AM 39.9467 -91.3486 150° Southeast 423 487 27,000 -581 Level Kansas City Center
Tue 11:26:41 AM 39.8239 -91.2564 150° Southeast 427 491 25,800 -1,645 Descending Kansas City Center
Tue 11:27:43 AM 39.7331 -91.1881 150° Southeast 414 476 23,600 -2,274 Descending Kansas City Center
Tue 11:28:45 AM 39.6414 -91.1108 147° Southeast 398 458 21,100 -2,613 Descending Kansas City Center
Tue 11:29:47 AM 39.5317 -91.0208 148° Southeast 392 451 18,200 -2,613 Descending Kansas City Center
Tue 11:30:49 AM 39.4433 -90.9503 148° Southeast 378 435 15,700 -2,323 Descending Kansas City Center
Tue 11:31:51 AM 39.3597 -90.8825 148° Southeast 360 414 13,400 -2,177 Descending Kansas City Center
Tue 11:32:53 AM 39.2789 -90.8308 154° Southeast 334 384 11,200 -1,645 Descending Kansas City Center
Tue 11:33:55 AM 39.1983 -90.8047 166° South 305 351 10,000 -1,258 Descending Kansas City Center
Tue 11:34:57 AM 39.1294 -90.7694 158° South 276 318 8,600 -1,645 Descending Kansas City Center
Tue 11:35:59 AM 39.0578 -90.7050 145° Southeast 262 302 6,600 -1,694 Descending Kansas City Center
Tue 11:37:01 AM 38.9981 -90.6517 145° Southeast 262 302 5,100 -1,016 Descending Kansas City Center
Tue 11:38:03 AM 38.9406 -90.6000 145° Southeast 259 298 4,500 -532 Descending Kansas City Center
Tue 11:39:05 AM 38.8900 -90.5542 145° Southeast 242 278 4,000 -581 Descending Kansas City Center
Tue 11:40:07 AM 38.8394 -90.5089 145° Southeast 230 265 3,300 -919 Descending Kansas City Center
Tue 11:41:09 AM 38.7950 -90.4644 142° Southeast 216 249 2,100 -1,016 Descending Kansas City Center
Tue 11:42:11 AM 38.7714 -90.4139 121° Southeast 182 209 1,200 -768 Descending Kansas City Center
Tue 11:43:14 AM 38.7506 -90.3714 122° Southeast 156 180 500 -667 Descending Kansas City Center

Login

Don't have an account? Register now (free) for customized features, flight alerts, and more!